createdAt,value
2022-09-23T00:02:12.434Z,101648.16
2022-09-23T00:04:41.502Z,101641.28
2022-09-23T00:07:10.906Z,101652.38
2022-09-23T00:09:38.865Z,101647.13
2022-09-23T00:12:09.170Z,101648.00
2022-09-23T00:14:38.872Z,101643.50
2022-09-23T00:17:07.112Z,101641.91
2022-09-23T00:19:35.332Z,101648.97
2022-09-23T00:22:03.193Z,101638.31
2022-09-23T00:24:33.290Z,101634.03
2022-09-23T00:27:01.440Z,101610.53
2022-09-23T00:29:29.368Z,101623.56
2022-09-23T00:31:57.123Z,101633.00
2022-09-23T00:34:25.240Z,101611.06
2022-09-23T00:36:53.154Z,101636.53
2022-09-23T00:39:20.914Z,101631.31
2022-09-23T00:41:50.182Z,101633.16
2022-09-23T00:44:44.773Z,101637.59
2022-09-23T00:47:22.586Z,101620.06
2022-09-23T00:50:00.225Z,101624.44
2022-09-23T00:52:28.449Z,101618.22
2022-09-23T00:54:59.633Z,101627.72
2022-09-23T00:57:30.713Z,101636.47
2022-09-23T00:59:58.921Z,101623.44
2022-09-23T01:02:28.325Z,101612.97
2022-09-23T01:04:56.417Z,101623.22
2022-09-23T01:07:24.285Z,101618.88
2022-09-23T01:09:52.219Z,101610.09
2022-09-23T01:12:35.442Z,101616.25
2022-09-23T01:15:13.369Z,101607.63
2022-09-23T01:17:50.406Z,101620.78
2022-09-23T01:20:57.048Z,101609.66
2022-09-23T01:24:09.093Z,101610.34
2022-09-23T01:27:00.225Z,101616.63
2022-09-23T01:30:07.836Z,101582.25
2022-09-23T01:32:57.488Z,101598.84
2022-09-23T01:35:31.425Z,101603.25
2022-09-23T01:38:12.280Z,101591.03
2022-09-23T01:40:50.495Z,101586.69
2022-09-23T01:43:28.841Z,101591.94
2022-09-23T01:46:00.378Z,101593.63
2022-09-23T01:48:36.646Z,101591.78
2022-09-23T01:51:09.631Z,101583.16
2022-09-23T01:53:44.990Z,101577.88
2022-09-23T01:56:18.889Z,101580.38
2022-09-23T01:58:53.831Z,101581.06
2022-09-23T02:01:31.160Z,101587.31
2022-09-23T02:04:05.381Z,101577.66
2022-09-23T02:06:39.345Z,101579.28
2022-09-23T02:09:12.054Z,101554.81
2022-09-23T02:11:45.407Z,101574.09
2022-09-23T02:14:18.663Z,101548.63
2022-09-23T02:16:50.560Z,101556.34
2022-09-23T02:19:25.518Z,101552.22
2022-09-23T02:21:59.741Z,101558.19
2022-09-23T02:24:31.615Z,101522.38
2022-09-23T02:27:04.239Z,101547.72
2022-09-23T02:29:41.857Z,101525.94
2022-09-23T02:32:18.927Z,101537.41
2022-09-23T02:34:59.500Z,101536.84
2022-09-23T02:37:38.887Z,101530.88
2022-09-23T02:40:17.329Z,101538.84
2022-09-23T02:42:53.303Z,101524.13
2022-09-23T02:45:21.237Z,101538.03
2022-09-23T02:47:53.812Z,101529.41
2022-09-23T02:50:23.348Z,101527.69
2022-09-23T02:52:52.320Z,101527.66
2022-09-23T02:55:24.496Z,101526.88
2022-09-23T02:57:53.508Z,101507.81
2022-09-23T03:00:21.857Z,101510.28
2022-09-23T03:03:05.324Z,101510.97
2022-09-23T03:05:40.173Z,101503.28
2022-09-23T03:08:25.998Z,101511.03
2022-09-23T03:11:01.874Z,101510.34
2022-09-23T03:13:36.482Z,101502.44
2022-09-23T03:16:15.987Z,101500.72
2022-09-23T03:18:51.598Z,101480.78
2022-09-23T03:21:26.150Z,101479.88
2022-09-23T03:23:57.247Z,101505.06
2022-09-23T03:26:30.073Z,101499.81
2022-09-23T03:28:59.397Z,101492.09
2022-09-23T03:31:27.454Z,101495.59
2022-09-23T03:34:01.853Z,101479.09
2022-09-23T03:36:56.984Z,101491.34
2022-09-23T03:39:32.498Z,101479.00
2022-09-23T03:42:04.696Z,101453.91
2022-09-23T03:44:39.092Z,101480.28
2022-09-23T03:47:07.606Z,101477.81
2022-09-23T03:49:41.192Z,101447.34
2022-09-23T03:52:11.123Z,101461.94
2022-09-23T03:54:39.053Z,101463.06
2022-09-23T03:57:07.264Z,101463.00
2022-09-23T03:59:35.272Z,101461.16
2022-09-23T04:02:10.636Z,101452.41
2022-09-23T04:04:41.135Z,101454.22
2022-09-23T04:07:11.319Z,101431.38
2022-09-23T04:09:39.830Z,101456.53
2022-09-23T04:12:08.450Z,101437.47
2022-09-23T04:14:36.357Z,101446.25
2022-09-23T04:17:04.651Z,101452.97
2022-09-23T04:19:32.634Z,101450.28
2022-09-23T04:22:01.329Z,101455.59
2022-09-23T04:24:30.543Z,101454.72
2022-09-23T04:27:00.260Z,101451.28
2022-09-23T04:29:28.895Z,101437.22
2022-09-23T04:31:57.830Z,101455.72
2022-09-23T04:34:25.888Z,101442.59
2022-09-23T04:36:53.965Z,101443.41
2022-09-23T04:39:22.069Z,101433.72
2022-09-23T04:41:51.478Z,101445.75
2022-09-23T04:44:21.038Z,101435.25
2022-09-23T04:46:49.346Z,101443.00
2022-09-23T04:49:17.765Z,101431.78
2022-09-23T04:51:45.733Z,101443.94
2022-09-23T04:54:16.706Z,101428.19
2022-09-23T04:56:44.610Z,101453.31
2022-09-23T04:59:13.800Z,101451.50
2022-09-23T05:01:42.415Z,101448.59
2022-09-23T05:04:14.321Z,101455.75
2022-09-23T05:06:43.978Z,101426.16
2022-09-23T05:09:17.298Z,101436.59
2022-09-23T05:11:48.285Z,101452.03
2022-09-23T05:14:17.569Z,101434.69
2022-09-23T05:16:45.529Z,101442.41
2022-09-23T05:19:16.464Z,101455.47
2022-09-23T05:21:46.793Z,101446.91
2022-09-23T05:24:15.014Z,101454.00
2022-09-23T05:26:43.310Z,101440.09
2022-09-23T05:29:11.534Z,101439.97
2022-09-23T05:31:41.254Z,101435.47
2022-09-23T05:34:09.395Z,101424.94
2022-09-23T05:36:39.133Z,101427.53
2022-09-23T05:39:08.423Z,101415.13
2022-09-23T05:41:40.733Z,101416.50
2022-09-23T05:44:08.790Z,101430.59
2022-09-23T05:46:37.122Z,101429.53
2022-09-23T05:49:07.301Z,101433.81
2022-09-23T05:51:36.104Z,101407.47
2022-09-23T05:54:05.682Z,101429.78
2022-09-23T05:56:35.190Z,101402.50
2022-09-23T05:59:04.510Z,101418.91
2022-09-23T06:01:34.382Z,101423.94
2022-09-23T06:04:05.174Z,101425.63
2022-09-23T06:06:37.023Z,101429.75
2022-09-23T06:09:05.821Z,101431.31
2022-09-23T06:11:35.818Z,101418.81
2022-09-23T06:14:04.431Z,101430.69
2022-09-23T06:16:34.530Z,101439.22
2022-09-23T06:19:06.230Z,101411.00
2022-09-23T06:21:38.530Z,101402.63
2022-09-23T06:24:15.830Z,101394.41
2022-09-23T06:26:44.991Z,101430.88
2022-09-23T06:29:13.518Z,101429.44
2022-09-23T06:31:42.386Z,101421.88
2022-09-23T06:34:13.932Z,101413.69
2022-09-23T06:36:46.190Z,101418.53
2022-09-23T06:39:15.457Z,101403.81
2022-09-23T06:41:45.452Z,101430.19
2022-09-23T06:44:14.127Z,101437.66
2022-09-23T06:46:42.196Z,101443.44
2022-09-23T06:49:12.977Z,101439.06
2022-09-23T06:51:41.432Z,101476.91
2022-09-23T06:54:11.263Z,101498.91
2022-09-23T06:56:39.938Z,101520.59
2022-09-23T06:59:08.934Z,101532.91
2022-09-23T07:01:36.960Z,101536.94
2022-09-23T07:04:05.421Z,101524.47
2022-09-23T07:06:33.413Z,101520.53
2022-09-23T07:09:01.827Z,101537.63
2022-09-23T07:11:32.118Z,101539.97
2022-09-23T07:14:01.698Z,101539.19
2022-09-23T07:16:31.629Z,101537.75
2022-09-23T07:19:08.794Z,101513.88
2022-09-23T07:21:36.844Z,101542.34
2022-09-23T07:25:09.592Z,101538.59
2022-09-23T07:27:38.818Z,101543.00
2022-09-23T07:30:14.095Z,101532.63
2022-09-23T07:32:49.177Z,101533.00
2022-09-23T07:35:17.917Z,101515.22
2022-09-23T07:37:48.187Z,101518.53
2022-09-23T07:40:18.734Z,101532.53
2022-09-23T07:42:48.176Z,101535.78
2022-09-23T07:45:16.385Z,101534.53
2022-09-23T07:47:45.831Z,101508.44
2022-09-23T07:50:14.800Z,101524.66
2022-09-23T07:52:42.963Z,101533.03
2022-09-23T07:55:11.178Z,101531.13
2022-09-23T07:57:39.248Z,101515.44
2022-09-23T08:00:10.377Z,101517.03
2022-09-23T08:02:38.738Z,101518.50
2022-09-23T08:05:07.878Z,101531.88
2022-09-23T08:07:36.011Z,101526.03
2022-09-23T08:10:04.036Z,101538.94
2022-09-23T08:12:32.003Z,101520.91
2022-09-23T08:15:00.989Z,101524.16
2022-09-23T08:17:30.411Z,101511.78
2022-09-23T08:20:01.436Z,101525.66
2022-09-23T08:22:29.926Z,101524.78
2022-09-23T08:25:01.729Z,101512.22
2022-09-23T08:27:32.283Z,101495.09
2022-09-23T08:30:01.466Z,101475.69
2022-09-23T08:32:31.747Z,101485.47
2022-09-23T08:34:59.852Z,101430.59
2022-09-23T08:37:27.979Z,101423.94
2022-09-23T08:39:55.883Z,101414.63
2022-09-23T08:42:29.442Z,101420.69
2022-09-23T08:45:01.854Z,101415.13
2022-09-23T08:47:47.133Z,101391.13
2022-09-23T08:50:20.222Z,101391.16
2022-09-23T08:52:52.829Z,101390.34
2022-09-23T08:55:24.483Z,101415.03
2022-09-23T08:58:24.341Z,101418.06
2022-09-23T09:01:12.832Z,101367.13
2022-09-23T09:03:49.427Z,101353.31
2022-09-23T09:06:22.265Z,101370.88
2022-09-23T09:08:56.042Z,101355.44
2022-09-23T09:11:31.547Z,101308.13
2022-09-23T09:14:06.870Z,101305.84
2022-09-23T09:17:01.783Z,101292.16
2022-09-23T09:19:53.902Z,101310.69
2022-09-23T09:22:26.094Z,101295.06
2022-09-23T09:25:00.018Z,101259.41
2022-09-23T09:27:28.073Z,101265.63
2022-09-23T09:29:56.585Z,101315.50
2022-09-23T09:32:36.495Z,101284.63
2022-09-23T09:35:20.144Z,101267.50
2022-09-23T09:37:48.901Z,101276.75
2022-09-23T09:40:18.244Z,101302.66
2022-09-23T09:42:49.672Z,101310.41
2022-09-23T09:45:28.909Z,101287.97
2022-09-23T09:48:08.039Z,101250.34
2022-09-23T09:50:49.228Z,101265.03
2022-09-23T09:53:24.021Z,101255.00
2022-09-23T09:56:05.792Z,101244.72
2022-09-23T09:58:46.205Z,101203.03
2022-09-23T10:01:25.725Z,101185.81
2022-09-23T10:03:56.869Z,101144.50
2022-09-23T10:06:29.836Z,101168.91
2022-09-23T10:09:17.227Z,101173.16
2022-09-23T10:12:04.253Z,101225.69
2022-09-23T10:14:32.196Z,101238.81
2022-09-23T10:17:05.605Z,101271.91
2022-09-23T10:19:37.331Z,101240.59
2022-09-23T10:22:23.542Z,101237.94
2022-09-23T10:24:54.896Z,101229.81
2022-09-23T10:27:35.340Z,101245.19
2022-09-23T10:30:08.185Z,101244.22
2022-09-23T10:32:38.777Z,101217.22
2022-09-23T10:35:18.726Z,101232.41
2022-09-23T10:37:52.369Z,101221.53
2022-09-23T10:40:46.048Z,101193.03
2022-09-23T10:43:44.188Z,101215.59
2022-09-23T10:46:39.299Z,101168.31
2022-09-23T10:49:32.377Z,101204.47
2022-09-23T10:52:11.584Z,101137.78
2022-09-23T10:54:58.004Z,101107.75
2022-09-23T10:57:43.701Z,101080.66
2022-09-23T11:00:23.671Z,101038.97
2022-09-23T11:03:09.484Z,101076.06
2022-09-23T11:05:43.379Z,101062.59
2022-09-23T11:08:30.348Z,101093.50
2022-09-23T11:11:34.677Z,101070.81
2022-09-23T11:14:17.217Z,101078.47
2022-09-23T11:17:14.669Z,101100.66
2022-09-23T11:20:09.485Z,101104.31
2022-09-23T11:22:55.430Z,101111.78
2022-09-23T11:25:33.841Z,101122.56
2022-09-23T11:28:23.506Z,101146.31
2022-09-23T11:31:01.375Z,101115.16
2022-09-23T11:33:44.529Z,101178.41
2022-09-23T11:36:19.557Z,101202.19
2022-09-23T11:38:51.938Z,101219.19
2022-09-23T11:41:26.969Z,101211.78
2022-09-23T11:44:04.521Z,101283.75
2022-09-23T11:46:37.128Z,101278.84
2022-09-23T11:49:11.106Z,101273.72
2022-09-23T11:51:43.659Z,101288.75
2022-09-23T11:54:20.590Z,101267.88
2022-09-23T11:56:54.475Z,101288.34
2022-09-23T11:59:39.671Z,101269.88
2022-09-23T12:02:22.986Z,101235.69
2022-09-23T12:05:01.434Z,101282.13
2022-09-23T12:07:40.679Z,101293.53
2022-09-23T12:10:11.206Z,101310.00
2022-09-23T12:12:50.622Z,101311.63
2022-09-23T12:15:34.398Z,101318.69
2022-09-23T12:18:27.553Z,101329.91
2022-09-23T12:21:45.802Z,101341.47
2022-09-23T12:24:45.271Z,101339.81
2022-09-23T12:27:24.351Z,101332.34
2022-09-23T12:29:57.669Z,101312.59
2022-09-23T12:32:30.607Z,101357.56
2022-09-23T12:35:02.742Z,101347.78
2022-09-23T12:37:35.924Z,101346.25
2022-09-23T12:40:09.325Z,101331.72
2022-09-23T12:42:44.735Z,101353.72
2022-09-23T12:45:35.173Z,101360.25
2022-09-23T12:48:05.946Z,101366.16
2022-09-23T12:50:52.190Z,101386.97
2022-09-23T12:53:57.920Z,101388.84
2022-09-23T12:56:29.880Z,101373.38
2022-09-23T12:59:24.068Z,101376.69
2022-09-23T13:01:52.556Z,101377.91
2022-09-23T13:04:51.555Z,101374.84
2022-09-23T13:07:26.426Z,101369.09
2022-09-23T13:10:02.708Z,101373.09
2022-09-23T13:12:33.748Z,101380.88
2022-09-23T13:15:06.352Z,101357.66
2022-09-23T13:17:37.837Z,101376.09
2022-09-23T13:20:29.221Z,101356.34
2022-09-23T13:23:07.087Z,101363.28
2022-09-23T13:25:46.013Z,101371.94
2022-09-23T13:28:27.225Z,101349.59
2022-09-23T13:30:55.498Z,101351.00
2022-09-23T13:33:38.027Z,101358.22
2022-09-23T13:36:13.161Z,101352.84
2022-09-23T13:38:42.674Z,101354.38
2022-09-23T13:41:15.465Z,101345.50
2022-09-23T13:43:46.295Z,101366.38
2022-09-23T13:46:18.690Z,101366.19
2022-09-23T13:48:48.759Z,101368.13
2022-09-23T13:51:22.950Z,101342.91
2022-09-23T13:53:56.649Z,101367.63
2022-09-23T13:56:26.258Z,101331.84
2022-09-23T13:58:55.879Z,101342.97
2022-09-23T14:01:30.674Z,101336.19
2022-09-23T14:03:58.734Z,101326.69
2022-09-23T14:06:28.208Z,101319.19
2022-09-23T14:09:01.251Z,101326.09
2022-09-23T14:11:31.621Z,101332.03
2022-09-23T14:14:07.637Z,101328.25
2022-09-23T14:16:41.182Z,101323.78
2022-09-23T14:19:14.829Z,101300.03
2022-09-23T14:21:42.960Z,101316.75
2022-09-23T14:24:17.594Z,101306.78
2022-09-23T14:26:49.669Z,101307.88
2022-09-23T14:29:20.297Z,101281.06
2022-09-23T14:31:57.180Z,101284.00
2022-09-23T14:34:45.789Z,101298.84
2022-09-23T14:37:39.668Z,101303.63
2022-09-23T14:40:15.515Z,101285.09
2022-09-23T14:42:49.117Z,101282.91
2022-09-23T14:45:20.614Z,101257.50
2022-09-23T14:47:51.200Z,101281.31
2022-09-23T14:50:38.747Z,101273.06
2022-09-23T14:53:38.799Z,101278.56
2022-09-23T14:56:16.902Z,101263.19
2022-09-23T14:58:52.884Z,101269.63
2022-09-23T15:01:39.046Z,101269.53
2022-09-23T15:04:30.462Z,101269.22
2022-09-23T15:07:01.649Z,101264.13
2022-09-23T15:09:32.744Z,101258.06
2022-09-23T15:12:09.183Z,101271.56
2022-09-23T15:14:41.266Z,101264.34
2022-09-23T15:17:25.434Z,101253.91
2022-09-23T15:19:56.887Z,101255.41
2022-09-23T15:22:26.628Z,101252.53
2022-09-23T15:24:55.866Z,101254.59
2022-09-23T15:27:34.145Z,101251.66
2022-09-23T15:30:14.868Z,101240.00
2022-09-23T15:32:43.458Z,101245.78
2022-09-23T15:35:16.642Z,101230.94
2022-09-23T15:37:45.007Z,101252.88
2022-09-23T15:40:20.938Z,101253.38
2022-09-23T15:42:52.666Z,101254.25
2022-09-23T15:45:34.718Z,101253.00
2022-09-23T15:48:08.189Z,101230.25
2022-09-23T15:50:41.236Z,101235.00
2022-09-23T15:57:13.373Z,101218.22
2022-09-23T15:59:44.199Z,101240.78
2022-09-23T16:02:21.346Z,101240.34
2022-09-23T16:04:50.353Z,101229.53
2022-09-23T16:07:21.102Z,101241.78
2022-09-23T16:09:50.524Z,101255.75
2022-09-23T16:12:18.851Z,101241.41
2022-09-23T16:14:48.476Z,101243.22
2022-09-23T16:17:18.554Z,101252.13
2022-09-23T16:19:46.624Z,101246.19
2022-09-23T16:22:16.691Z,101251.56
2022-09-23T16:24:44.948Z,101252.78
2022-09-23T16:27:17.953Z,101243.50
2022-09-23T16:29:45.969Z,101228.75
2022-09-23T16:32:21.460Z,101232.75
2022-09-23T16:34:50.027Z,101229.09
2022-09-23T16:37:18.042Z,101235.28
2022-09-23T16:39:46.875Z,101226.66
2022-09-23T16:42:14.874Z,101225.06
2022-09-23T16:44:42.852Z,101223.47
2022-09-23T16:47:10.800Z,101228.88
2022-09-23T16:49:40.084Z,101222.88
2022-09-23T16:52:12.871Z,101234.47
2022-09-23T16:54:42.279Z,101225.84
2022-09-23T16:57:13.098Z,101225.69
2022-09-23T16:59:59.875Z,101205.09
2022-09-23T17:02:56.752Z,101217.25
2022-09-23T17:05:27.502Z,101225.44
2022-09-23T17:07:55.399Z,101218.41
2022-09-23T17:10:24.039Z,101222.00
2022-09-23T17:12:54.488Z,101220.25
2022-09-23T17:15:22.563Z,101219.53
2022-09-23T17:17:50.451Z,101224.06
2022-09-23T17:20:18.549Z,101241.81
2022-09-23T17:22:48.286Z,101232.84
2022-09-23T17:25:16.492Z,101231.03
2022-09-23T17:27:44.411Z,101217.22
2022-09-23T17:30:14.681Z,101235.78
2022-09-23T17:32:42.693Z,101227.00
2022-09-23T17:35:11.569Z,101227.06
2022-09-23T17:37:39.692Z,101227.00
2022-09-23T17:40:10.515Z,101221.81
2022-09-23T17:42:41.107Z,101224.53
2022-09-23T17:45:10.315Z,101231.78
2022-09-23T17:47:41.820Z,101225.53
2022-09-23T17:50:10.435Z,101227.47
2022-09-23T17:52:39.979Z,101228.34
2022-09-23T17:55:12.103Z,101231.94
2022-09-23T17:57:40.995Z,101230.53
2022-09-23T18:00:10.645Z,101226.09
2022-09-23T18:02:38.773Z,101224.47
2022-09-23T18:05:07.811Z,101211.22
2022-09-23T18:07:35.735Z,101215.78
2022-09-23T18:10:03.778Z,101210.34
2022-09-23T18:12:33.018Z,101207.88
2022-09-23T18:15:01.179Z,101200.81
2022-09-23T18:17:32.395Z,101209.47
2022-09-23T18:20:00.423Z,101199.84
2022-09-23T18:22:28.577Z,101210.25
2022-09-23T18:24:59.550Z,101214.56
2022-09-23T18:27:27.721Z,101179.09
2022-09-23T18:29:57.190Z,101204.34
2022-09-23T18:32:27.966Z,101198.41
2022-09-23T18:34:56.196Z,101221.25
2022-09-23T18:37:24.373Z,101191.47
2022-09-23T18:39:52.401Z,101196.69
2022-09-23T18:42:20.745Z,101200.38
2022-09-23T18:44:54.286Z,101187.13
2022-09-23T18:47:37.968Z,101186.53
2022-09-23T18:50:24.373Z,101192.72
2022-09-23T18:52:55.091Z,101186.66
2022-09-23T18:55:23.263Z,101204.09
2022-09-23T18:57:51.457Z,101182.56
2022-09-23T19:00:20.402Z,101195.69
2022-09-23T19:02:49.741Z,101180.25
2022-09-23T19:05:19.065Z,101197.03
2022-09-23T19:07:46.974Z,101201.41
2022-09-23T19:10:16.512Z,101183.16
2022-09-23T19:12:47.026Z,101203.28
2022-09-23T19:15:15.249Z,101180.75
2022-09-23T19:17:43.186Z,101185.84
2022-09-23T19:20:16.014Z,101185.09
2022-09-23T19:22:47.226Z,101185.22
2022-09-23T19:25:17.613Z,101171.38
2022-09-23T19:27:47.977Z,101178.16
2022-09-23T19:30:16.661Z,101186.00
2022-09-23T19:32:46.019Z,101182.63
2022-09-23T19:35:16.091Z,101178.25
2022-09-23T19:37:46.031Z,101175.44
2022-09-23T19:40:14.839Z,101181.56
2022-09-23T19:42:43.937Z,101167.88
2022-09-23T19:45:14.833Z,101176.31
2022-09-23T19:47:44.436Z,101177.16
2022-09-23T19:50:12.897Z,101153.66
2022-09-23T19:52:42.650Z,101160.56
2022-09-23T19:55:15.702Z,101151.34
2022-09-23T19:57:43.839Z,101166.00
2022-09-23T20:00:16.537Z,101146.66
2022-09-23T20:02:44.660Z,101162.94
2022-09-23T20:05:16.242Z,101148.00
2022-09-23T20:07:48.009Z,101156.97
2022-09-23T20:10:16.451Z,101149.06
2022-09-23T20:12:44.272Z,101146.34
2022-09-23T20:15:13.497Z,101149.13
2022-09-23T20:17:42.942Z,101154.44
2022-09-23T20:20:13.560Z,101138.00
2022-09-23T20:22:42.827Z,101145.06
2022-09-23T20:25:18.372Z,101124.25
2022-09-23T20:27:52.669Z,101130.28
2022-09-23T20:30:29.593Z,101138.19
2022-09-23T20:32:59.336Z,101137.25
2022-09-23T20:35:32.785Z,101117.50
2022-09-23T20:38:06.009Z,101117.22
2022-09-23T20:40:38.999Z,101128.66
2022-09-23T20:43:08.055Z,101121.16
2022-09-23T20:45:35.877Z,101117.44
2022-09-23T20:48:04.395Z,101126.09
2022-09-23T20:50:33.393Z,101124.31
2022-09-23T20:53:01.388Z,101129.75
2022-09-23T20:55:32.626Z,101114.00
2022-09-23T20:58:03.527Z,101123.44
2022-09-23T21:00:31.792Z,101099.28
2022-09-23T21:03:00.011Z,101107.06
2022-09-23T21:05:29.861Z,101118.25
2022-09-23T21:08:02.631Z,101093.41
2022-09-23T21:10:30.966Z,101110.09
2022-09-23T21:12:59.072Z,101087.47
2022-09-23T21:15:28.860Z,101106.03
2022-09-23T21:17:56.738Z,101105.84
2022-09-23T21:20:25.634Z,101081.56
2022-09-23T21:22:53.571Z,101098.84
2022-09-23T21:25:29.561Z,101088.22
2022-09-23T21:27:59.037Z,101078.09
2022-09-23T21:30:28.336Z,101092.25
2022-09-23T21:32:56.818Z,101073.28
2022-09-23T21:35:24.844Z,101076.06
2022-09-23T21:37:52.845Z,101090.72
2022-09-23T21:40:38.053Z,101081.25
2022-09-23T21:43:05.984Z,101078.84
2022-09-23T21:45:35.194Z,101087.44
2022-09-23T21:48:03.516Z,101083.91
2022-09-23T21:50:32.530Z,101086.63
2022-09-23T21:53:06.855Z,101091.19
2022-09-23T21:55:34.944Z,101065.03
2022-09-23T21:58:11.648Z,101088.59
2022-09-23T22:00:41.881Z,101080.56
2022-09-23T22:03:09.783Z,101079.13
2022-09-23T22:05:43.957Z,101077.97
2022-09-23T22:08:12.284Z,101086.00
2022-09-23T22:10:40.293Z,101078.09
2022-09-23T22:13:12.812Z,101077.56
2022-09-23T22:15:42.562Z,101096.03
2022-09-23T22:18:10.440Z,101073.94
2022-09-23T22:20:38.547Z,101086.88
2022-09-23T22:23:06.413Z,101083.28
2022-09-23T22:25:34.230Z,101081.50
2022-09-23T22:28:20.873Z,101076.00
2022-09-23T22:31:22.435Z,101080.34
2022-09-23T22:33:50.811Z,101073.41
2022-09-23T22:36:18.824Z,101079.47
2022-09-23T22:38:46.581Z,101081.03
2022-09-23T22:41:15.237Z,101080.16
2022-09-23T22:43:43.238Z,101067.25
2022-09-23T22:46:12.627Z,101073.06
2022-09-23T22:48:44.221Z,101080.28
2022-09-23T22:51:12.386Z,101067.97
2022-09-23T22:53:40.292Z,101071.44
2022-09-23T22:56:08.492Z,101074.78
2022-09-23T22:58:36.380Z,101066.69
2022-09-23T23:01:04.263Z,101077.31
2022-09-23T23:03:34.510Z,101073.63
2022-09-23T23:06:03.618Z,101069.19
2022-09-23T23:08:32.230Z,101070.84
2022-09-23T23:11:05.436Z,101061.22
2022-09-23T23:13:34.484Z,101057.69
2022-09-23T23:16:05.419Z,101045.81
2022-09-23T23:18:36.071Z,101046.31
2022-09-23T23:21:08.688Z,101049.59
2022-09-23T23:23:41.104Z,101050.06
2022-09-23T23:26:10.828Z,101052.59
2022-09-23T23:28:39.215Z,101043.66
2022-09-23T23:31:09.059Z,101027.03
2022-09-23T23:33:39.079Z,101039.97
2022-09-23T23:36:07.843Z,101031.06
2022-09-23T23:38:37.924Z,101035.47
2022-09-23T23:41:09.175Z,101024.03
2022-09-23T23:43:37.212Z,101032.66
2022-09-23T23:46:06.647Z,101032.66
2022-09-23T23:48:36.159Z,101032.41
2022-09-23T23:51:07.381Z,101029.22
2022-09-23T23:53:37.171Z,101027.03
2022-09-23T23:56:07.464Z,101023.47
2022-09-23T23:58:35.684Z,101024.44
